createdAt,value
2022-09-20T00:01:21.932Z,11.06
2022-09-20T00:03:51.514Z,11.11
2022-09-20T00:06:22.692Z,10.90
2022-09-20T00:08:50.872Z,11.19
2022-09-20T00:11:21.964Z,10.95
2022-09-20T00:13:52.250Z,10.87
2022-09-20T00:16:23.729Z,11.22
2022-09-20T00:18:52.960Z,11.21
2022-09-20T00:21:23.186Z,11.23
2022-09-20T00:23:52.432Z,11.22
2022-09-20T00:26:21.855Z,11.19
2022-09-20T00:28:50.792Z,11.15
2022-09-20T00:31:18.921Z,11.19
2022-09-20T00:34:04.840Z,11.18
2022-09-20T00:36:32.756Z,11.10
2022-09-20T00:39:03.027Z,11.11
2022-09-20T00:41:33.440Z,11.08
2022-09-20T00:44:02.690Z,11.10
2022-09-20T00:46:37.516Z,11.09
2022-09-20T00:49:12.521Z,11.04
2022-09-20T00:51:44.125Z,10.95
2022-09-20T00:54:18.182Z,10.96
2022-09-20T00:56:49.986Z,11.01
2022-09-20T00:59:20.816Z,10.86
2022-09-20T01:01:53.540Z,11.01
2022-09-20T01:04:25.235Z,10.95
2022-09-20T01:06:55.848Z,11.01
2022-09-20T01:09:23.801Z,11.01
2022-09-20T01:11:55.407Z,10.96
2022-09-20T01:14:24.173Z,11.02
2022-09-20T01:16:54.593Z,11.02
2022-09-20T01:19:33.676Z,11.03
2022-09-20T01:22:05.352Z,11.04
2022-09-20T01:24:42.675Z,11.04
2022-09-20T01:27:23.333Z,11.05
2022-09-20T01:30:05.189Z,11.04
2022-09-20T01:32:44.030Z,11.02
2022-09-20T01:35:13.053Z,10.96
2022-09-20T01:37:54.583Z,10.95
2022-09-20T01:40:31.832Z,10.93
2022-09-20T01:43:09.428Z,10.90
2022-09-20T01:45:46.103Z,10.87
2022-09-20T01:48:20.687Z,10.86
2022-09-20T01:51:12.429Z,10.90
2022-09-20T01:54:10.869Z,10.91
2022-09-20T01:57:12.035Z,10.96
2022-09-20T01:59:56.760Z,10.98
2022-09-20T02:03:00.948Z,10.99
2022-09-20T02:06:08.568Z,11.00
2022-09-20T02:09:08.719Z,10.96
2022-09-20T02:11:52.125Z,10.94
2022-09-20T02:14:33.185Z,10.90
2022-09-20T02:17:12.112Z,10.93
2022-09-20T02:20:05.460Z,10.95
2022-09-20T02:22:45.772Z,10.94
2022-09-20T02:25:24.716Z,10.93
2022-09-20T02:28:07.356Z,10.94
2022-09-20T02:30:50.287Z,10.91
2022-09-20T02:33:33.444Z,10.86
2022-09-20T02:36:17.540Z,10.79
2022-09-20T02:39:00.235Z,10.75
2022-09-20T02:41:59.985Z,10.78
2022-09-20T02:44:44.943Z,10.74
2022-09-20T02:47:22.643Z,10.74
2022-09-20T02:50:04.168Z,10.73
2022-09-20T02:52:38.972Z,10.63
2022-09-20T02:55:13.110Z,10.65
2022-09-20T02:57:53.667Z,10.61
2022-09-20T03:00:25.388Z,10.57
2022-09-20T03:03:06.318Z,10.56
2022-09-20T03:05:48.883Z,10.55
2022-09-20T03:08:31.179Z,10.50
2022-09-20T03:11:10.524Z,10.47
2022-09-20T03:13:55.696Z,10.44
2022-09-20T03:16:36.463Z,10.40
2022-09-20T03:19:16.653Z,10.34
2022-09-20T03:21:57.753Z,10.27
2022-09-20T03:24:40.627Z,10.29
2022-09-20T03:27:17.612Z,10.27
2022-09-20T03:30:00.000Z,10.25
2022-09-20T03:32:45.854Z,10.25
2022-09-20T03:35:30.296Z,10.26
2022-09-20T03:38:14.148Z,10.29
2022-09-20T03:40:59.855Z,10.31
2022-09-20T03:43:42.669Z,10.30
2022-09-20T03:46:18.933Z,10.29
2022-09-20T03:49:33.568Z,10.28
2022-09-20T03:52:14.192Z,10.22
2022-09-20T03:55:11.768Z,10.21
2022-09-20T03:58:08.742Z,10.27
2022-09-20T04:00:53.079Z,10.37
2022-09-20T04:03:29.679Z,10.45
2022-09-20T04:06:19.120Z,10.49
2022-09-20T04:09:06.005Z,10.53
2022-09-20T04:11:44.382Z,10.57
2022-09-20T04:14:24.120Z,10.60
2022-09-20T04:17:01.113Z,10.65
2022-09-20T04:19:36.545Z,10.69
2022-09-20T04:22:07.436Z,10.71
2022-09-20T04:24:43.101Z,10.71
2022-09-20T04:27:16.202Z,10.69
2022-09-20T04:29:51.529Z,10.68
2022-09-20T04:32:26.110Z,10.69
2022-09-20T04:35:19.084Z,10.69
2022-09-20T04:37:48.595Z,10.73
2022-09-20T04:40:31.895Z,10.72
2022-09-20T04:43:35.315Z,10.66
2022-09-20T04:46:28.540Z,10.69
2022-09-20T04:49:32.411Z,10.68
2022-09-20T04:52:39.129Z,10.65
2022-09-20T04:55:49.564Z,10.65
2022-09-20T04:58:49.578Z,10.66
2022-09-20T05:01:45.670Z,10.64
2022-09-20T05:04:55.093Z,10.70
2022-09-20T05:07:57.686Z,10.72
2022-09-20T05:10:59.313Z,10.73
2022-09-20T05:13:39.624Z,10.72
2022-09-20T05:16:16.926Z,10.87
2022-09-20T05:19:12.197Z,10.99
2022-09-20T05:21:58.517Z,11.05
2022-09-20T05:25:07.299Z,11.03
2022-09-20T05:27:43.208Z,11.04
2022-09-20T05:30:20.700Z,11.09
2022-09-20T05:33:00.098Z,11.14
2022-09-20T05:35:35.213Z,11.13
2022-09-20T05:38:12.811Z,11.12
2022-09-20T05:41:00.430Z,11.16
2022-09-20T05:43:33.389Z,11.18
2022-09-20T05:46:16.438Z,10.94
2022-09-20T05:48:56.455Z,10.97
2022-09-20T05:51:57.806Z,10.93
2022-09-20T05:54:37.562Z,11.04
2022-09-20T05:57:18.044Z,11.06
2022-09-20T06:00:00.015Z,11.11
2022-09-20T06:02:42.417Z,11.12
2022-09-20T06:05:16.795Z,11.32
2022-09-20T06:08:17.137Z,11.10
2022-09-20T06:11:10.066Z,11.24
2022-09-20T06:14:01.106Z,11.14
2022-09-20T06:16:37.030Z,11.39
2022-09-20T06:19:15.171Z,11.06
2022-09-20T06:21:51.166Z,10.98
2022-09-20T06:24:33.758Z,11.05
2022-09-20T06:27:06.394Z,11.12
2022-09-20T06:29:38.555Z,11.52
2022-09-20T06:32:06.694Z,11.36
2022-09-20T06:34:35.244Z,11.37
2022-09-20T06:37:36.561Z,11.51
2022-09-20T06:40:38.887Z,11.27
2022-09-20T06:43:07.062Z,11.16
2022-09-20T06:45:35.795Z,11.19
2022-09-20T06:48:03.737Z,11.16
2022-09-20T06:50:33.665Z,11.63
2022-09-20T06:53:02.281Z,11.71
2022-09-20T06:55:37.359Z,12.05
2022-09-20T06:58:05.324Z,11.96
2022-09-20T07:00:33.338Z,12.00
2022-09-20T07:03:01.375Z,12.27
2022-09-20T07:05:29.260Z,12.32
2022-09-20T07:08:01.410Z,12.30
2022-09-20T07:10:30.755Z,12.31
2022-09-20T07:13:00.371Z,12.30
2022-09-20T07:15:28.864Z,12.27
2022-09-20T07:17:56.788Z,12.23
2022-09-20T07:20:24.844Z,12.24
2022-09-20T07:22:53.587Z,12.17
2022-09-20T07:25:21.636Z,12.18
2022-09-20T07:27:52.190Z,12.19
2022-09-20T07:30:21.702Z,12.24
2022-09-20T07:32:50.354Z,11.96
2022-09-20T07:35:18.180Z,12.01
2022-09-20T07:37:46.943Z,11.99
2022-09-20T07:40:15.859Z,11.64
2022-09-20T07:42:46.005Z,11.96
2022-09-20T07:45:15.567Z,12.22
2022-09-20T07:47:44.868Z,11.97
2022-09-20T07:50:13.141Z,11.86
2022-09-20T07:52:41.025Z,11.96
2022-09-20T07:55:09.978Z,11.98
2022-09-20T07:57:38.282Z,12.00
2022-09-20T08:00:08.410Z,12.20
2022-09-20T08:02:41.868Z,12.28
2022-09-20T08:05:10.113Z,12.74
2022-09-20T08:07:38.556Z,12.95
2022-09-20T08:10:07.616Z,12.85
2022-09-20T08:15:24.527Z,13.41
2022-09-20T08:17:54.044Z,13.48
2022-09-20T08:20:21.883Z,13.28
2022-09-20T08:23:06.371Z,13.34
2022-09-20T08:25:38.364Z,13.25
2022-09-20T08:28:06.267Z,13.01
2022-09-20T08:30:34.181Z,12.97
2022-09-20T08:33:04.873Z,13.07
2022-09-20T08:35:32.742Z,13.35
2022-09-20T08:40:50.473Z,13.35
2022-09-20T08:43:22.225Z,13.65
2022-09-20T08:45:50.840Z,13.45
2022-09-20T08:48:23.822Z,13.40
2022-09-20T08:50:51.694Z,13.40
2022-09-20T08:53:21.266Z,13.62
2022-09-20T08:55:49.862Z,13.53
2022-09-20T08:58:19.440Z,13.74
2022-09-20T09:00:54.530Z,13.47
2022-09-20T09:03:24.221Z,13.77
2022-09-20T09:05:55.019Z,13.58
2022-09-20T09:08:27.300Z,13.52
2022-09-20T09:10:58.240Z,13.77
2022-09-20T09:13:31.166Z,13.73
2022-09-20T09:16:01.266Z,13.66
2022-09-20T09:18:35.053Z,13.64
2022-09-20T09:21:05.303Z,13.43
2022-09-20T09:23:43.516Z,13.49
2022-09-20T09:26:19.957Z,13.88
2022-09-20T09:28:48.403Z,13.60
2022-09-20T09:31:25.804Z,13.72
2022-09-20T09:33:55.925Z,13.93
2022-09-20T09:36:25.970Z,13.76
2022-09-20T09:39:16.480Z,14.38
2022-09-20T09:41:46.353Z,14.30
2022-09-20T09:44:23.317Z,14.53
2022-09-20T09:46:53.641Z,14.31
2022-09-20T09:49:25.494Z,14.32
2022-09-20T09:52:12.967Z,14.24
2022-09-20T09:54:44.462Z,14.41
2022-09-20T09:57:35.362Z,14.03
2022-09-20T10:00:17.764Z,13.86
2022-09-20T10:03:15.061Z,13.74
2022-09-20T10:06:00.622Z,13.77
2022-09-20T10:08:38.251Z,13.94
2022-09-20T10:11:19.240Z,14.00
2022-09-20T10:13:58.478Z,14.04
2022-09-20T10:16:37.675Z,14.10
2022-09-20T10:19:15.084Z,14.24
2022-09-20T10:21:56.284Z,14.67
2022-09-20T10:24:36.397Z,14.42
2022-09-20T10:27:19.267Z,14.59
2022-09-20T10:30:02.907Z,14.32
2022-09-20T10:32:53.954Z,14.47
2022-09-20T10:35:30.359Z,14.53
2022-09-20T10:38:21.633Z,14.57
2022-09-20T10:41:28.259Z,14.64
2022-09-20T10:44:13.606Z,14.57
2022-09-20T10:46:49.928Z,14.51
2022-09-20T10:49:25.015Z,14.60
2022-09-20T10:52:10.062Z,14.77
2022-09-20T10:54:53.826Z,14.95
2022-09-20T10:57:46.541Z,15.20
2022-09-20T11:00:22.231Z,15.00
2022-09-20T11:03:08.011Z,15.06
2022-09-20T11:05:44.855Z,15.11
2022-09-20T11:08:16.324Z,15.05
2022-09-20T11:10:50.163Z,15.13
2022-09-20T11:13:26.196Z,15.04
2022-09-20T11:16:01.681Z,14.96
2022-09-20T11:18:35.689Z,14.99
2022-09-20T11:21:09.532Z,15.11
2022-09-20T11:23:46.307Z,15.09
2022-09-20T11:26:22.447Z,15.41
2022-09-20T11:28:55.098Z,15.23
2022-09-20T11:31:27.802Z,15.29
2022-09-20T11:34:00.424Z,15.28
2022-09-20T11:36:38.321Z,15.43
2022-09-20T11:39:14.917Z,15.36
2022-09-20T11:41:44.905Z,15.45
2022-09-20T11:44:16.281Z,15.69
2022-09-20T11:46:52.268Z,15.73
2022-09-20T11:49:24.896Z,15.72
2022-09-20T11:52:17.482Z,15.72
2022-09-20T11:55:28.106Z,15.87
2022-09-20T11:58:08.222Z,15.92
2022-09-20T12:00:38.757Z,16.01
2022-09-20T12:03:21.745Z,16.03
2022-09-20T12:05:58.903Z,15.74
2022-09-20T12:08:30.504Z,15.27
2022-09-20T12:11:04.221Z,14.86
2022-09-20T12:13:36.381Z,14.74
2022-09-20T12:16:07.685Z,14.56
2022-09-20T12:18:47.998Z,14.82
2022-09-20T12:21:17.807Z,14.73
2022-09-20T12:24:18.162Z,14.82
2022-09-20T12:26:48.400Z,14.86
2022-09-20T12:29:55.205Z,14.71
2022-09-20T12:32:47.901Z,15.23
2022-09-20T12:35:59.269Z,15.31
2022-09-20T12:38:34.022Z,15.42
2022-09-20T12:41:05.837Z,15.35
2022-09-20T12:43:36.575Z,15.43
2022-09-20T12:46:09.880Z,15.54
2022-09-20T12:48:41.217Z,15.96
2022-09-20T12:51:40.349Z,15.71
2022-09-20T12:54:11.762Z,16.19
2022-09-20T12:56:41.777Z,16.11
2022-09-20T12:59:23.380Z,16.25
2022-09-20T13:01:51.803Z,16.44
2022-09-20T13:04:53.086Z,16.43
2022-09-20T13:07:53.184Z,16.09
2022-09-20T13:10:30.275Z,15.82
2022-09-20T13:13:19.883Z,15.83
2022-09-20T13:15:51.661Z,15.66
2022-09-20T13:18:20.295Z,15.28
2022-09-20T13:20:51.723Z,15.04
2022-09-20T13:23:24.887Z,14.85
2022-09-20T13:25:53.668Z,12.84
2022-09-20T13:28:31.331Z,11.49
2022-09-20T13:31:24.882Z,11.21
2022-09-20T13:33:53.744Z,10.66
2022-09-20T13:36:28.272Z,10.23
2022-09-20T13:38:58.662Z,9.61
2022-09-20T13:41:32.566Z,8.78
2022-09-20T13:44:01.384Z,9.10
2022-09-20T13:46:32.178Z,9.33
2022-09-20T13:49:15.070Z,9.70
2022-09-20T13:51:45.121Z,9.90
2022-09-20T13:54:26.641Z,9.91
2022-09-20T13:56:56.553Z,10.17
2022-09-20T13:59:25.140Z,10.43
2022-09-20T14:01:55.386Z,10.50
2022-09-20T14:04:26.490Z,10.61
2022-09-20T14:06:58.955Z,10.62
2022-09-20T14:09:31.612Z,10.68
2022-09-20T14:12:00.920Z,10.73
2022-09-20T14:14:29.802Z,10.73
2022-09-20T14:16:58.720Z,10.75
2022-09-20T14:19:31.498Z,10.89
2022-09-20T14:22:05.004Z,11.01
2022-09-20T14:24:35.529Z,11.18
2022-09-20T14:27:07.757Z,11.22
2022-09-20T14:29:41.010Z,11.49
2022-09-20T14:32:22.928Z,11.61
2022-09-20T14:35:00.112Z,11.69
2022-09-20T14:37:32.379Z,11.85
2022-09-20T14:40:03.509Z,12.00
2022-09-20T14:42:36.573Z,12.08
2022-09-20T14:45:06.215Z,12.20
2022-09-20T14:47:38.993Z,12.33
2022-09-20T14:50:24.822Z,12.43
2022-09-20T14:53:06.828Z,12.52
2022-09-20T14:55:37.928Z,12.60
2022-09-20T14:58:09.387Z,12.69
2022-09-20T15:00:52.940Z,12.69
2022-09-20T15:03:27.289Z,12.74
2022-09-20T15:05:56.032Z,12.75
2022-09-20T15:08:25.860Z,12.76
2022-09-20T15:10:53.678Z,12.81
2022-09-20T15:13:21.693Z,12.80
2022-09-20T15:15:52.149Z,12.83
2022-09-20T15:18:22.640Z,12.91
2022-09-20T15:20:51.061Z,13.02
2022-09-20T15:23:19.559Z,12.93
2022-09-20T15:25:51.466Z,13.17
2022-09-20T15:28:20.362Z,13.38
2022-09-20T15:30:50.032Z,13.55
2022-09-20T15:33:18.711Z,13.56
2022-09-20T15:35:47.256Z,13.60
2022-09-20T15:38:15.839Z,13.49
2022-09-20T15:40:45.521Z,13.37
2022-09-20T15:43:16.990Z,13.31
2022-09-20T15:45:50.532Z,13.25
2022-09-20T15:48:21.394Z,13.16
2022-09-20T15:51:02.866Z,13.05
2022-09-20T15:53:34.168Z,12.94
2022-09-20T15:56:04.423Z,12.89
2022-09-20T15:58:36.412Z,12.78
2022-09-20T16:01:06.898Z,12.66
2022-09-20T16:03:35.532Z,12.61
2022-09-20T16:06:05.696Z,12.55
2022-09-20T16:08:33.944Z,12.43
2022-09-20T16:11:03.086Z,12.23
2022-09-20T16:13:31.086Z,11.95
2022-09-20T16:16:01.641Z,11.71
2022-09-20T16:18:47.807Z,11.61
2022-09-20T16:21:18.087Z,11.61
2022-09-20T16:23:49.107Z,11.52
2022-09-20T16:26:17.438Z,11.37
2022-09-20T16:28:47.761Z,11.28
2022-09-20T16:31:36.584Z,11.25
2022-09-20T16:34:05.967Z,11.23
2022-09-20T16:36:34.219Z,11.20
2022-09-20T16:39:03.175Z,11.16
2022-09-20T16:41:31.988Z,11.07
2022-09-20T16:43:59.778Z,10.96
2022-09-20T16:46:28.174Z,10.95
2022-09-20T16:49:00.924Z,10.93
2022-09-20T16:51:34.030Z,10.88
2022-09-20T16:54:06.859Z,10.86
2022-09-20T16:56:36.214Z,10.84
2022-09-20T16:59:05.814Z,10.83
2022-09-20T17:01:34.367Z,10.79
2022-09-20T17:04:05.197Z,10.71
2022-09-20T17:06:35.051Z,10.66
2022-09-20T17:09:03.629Z,10.61
2022-09-20T17:11:33.117Z,10.55
2022-09-20T17:14:01.019Z,10.51
2022-09-20T17:16:30.652Z,10.46
2022-09-20T17:19:00.569Z,10.41
2022-09-20T17:21:31.138Z,10.35
2022-09-20T17:24:00.642Z,10.33
2022-09-20T17:26:31.412Z,10.30
2022-09-20T17:28:59.283Z,10.28
2022-09-20T17:31:33.908Z,10.22
2022-09-20T17:34:02.379Z,10.21
2022-09-20T17:36:33.001Z,10.17
2022-09-20T17:39:04.502Z,10.06
2022-09-20T17:41:33.754Z,10.05
2022-09-20T17:44:07.923Z,10.00
2022-09-20T17:46:37.416Z,9.95
2022-09-20T17:49:07.341Z,9.94
2022-09-20T17:51:38.666Z,9.97
2022-09-20T17:54:07.617Z,9.99
2022-09-20T17:56:36.217Z,9.99
2022-09-20T17:59:06.252Z,10.01
2022-09-20T18:01:36.928Z,10.08
2022-09-20T18:04:06.907Z,10.18
2022-09-20T18:06:37.459Z,10.27
2022-09-20T18:09:09.176Z,10.38
2022-09-20T18:11:38.997Z,10.44
2022-09-20T18:14:08.426Z,10.49
2022-09-20T18:16:37.081Z,10.52
2022-09-20T18:19:06.072Z,10.48
2022-09-20T18:21:36.908Z,10.36
2022-09-20T18:24:07.039Z,10.35
2022-09-20T18:26:35.903Z,10.37
2022-09-20T18:29:06.389Z,10.38
2022-09-20T18:31:36.821Z,10.34
2022-09-20T18:34:06.573Z,10.28
2022-09-20T18:36:39.040Z,10.24
2022-09-20T18:39:07.692Z,10.25
2022-09-20T18:41:37.264Z,10.16
2022-09-20T18:44:07.528Z,10.16
2022-09-20T18:46:38.140Z,10.16
2022-09-20T18:49:08.271Z,10.16
2022-09-20T18:51:39.990Z,10.20
2022-09-20T18:54:10.107Z,10.18
2022-09-20T18:56:39.202Z,10.24
2022-09-20T18:59:09.157Z,10.23
2022-09-20T19:02:09.864Z,10.16
2022-09-20T19:04:52.072Z,10.17
2022-09-20T19:07:29.392Z,10.18
2022-09-20T19:10:04.127Z,10.20
2022-09-20T19:12:37.280Z,10.17
2022-09-20T19:15:21.409Z,10.05
2022-09-20T19:18:06.067Z,10.02
2022-09-20T19:20:41.971Z,10.02
2022-09-20T19:23:28.865Z,9.93
2022-09-20T19:26:08.201Z,9.93
2022-09-20T19:28:36.508Z,10.00
2022-09-20T19:31:04.955Z,9.99
2022-09-20T19:33:33.246Z,10.06
2022-09-20T19:36:03.231Z,10.03
2022-09-20T19:38:41.316Z,10.04
2022-09-20T19:41:27.404Z,10.07
2022-09-20T19:44:14.236Z,10.03
2022-09-20T19:46:53.081Z,9.93
2022-09-20T19:49:28.473Z,10.08
2022-09-20T19:51:57.768Z,10.12
2022-09-20T19:54:27.564Z,10.12
2022-09-20T19:56:57.639Z,10.10
2022-09-20T19:59:27.312Z,10.06
2022-09-20T20:01:56.411Z,10.04
2022-09-20T20:04:24.794Z,9.98
2022-09-20T20:07:02.066Z,9.95
2022-09-20T20:09:39.920Z,9.95
2022-09-20T20:12:15.490Z,9.89
2022-09-20T20:14:54.278Z,9.85
2022-09-20T20:17:35.933Z,9.89
2022-09-20T20:20:20.092Z,9.98
2022-09-20T20:23:12.290Z,9.99
2022-09-20T20:25:48.023Z,10.01
2022-09-20T20:28:15.835Z,10.01
2022-09-20T20:30:43.610Z,10.14
2022-09-20T20:33:15.015Z,9.95
2022-09-20T20:35:43.002Z,9.95
2022-09-20T20:38:12.553Z,10.16
2022-09-20T20:40:41.714Z,10.98
2022-09-20T20:43:09.861Z,11.01
2022-09-20T20:45:38.618Z,10.35
2022-09-20T20:48:06.373Z,10.19
2022-09-20T20:50:35.345Z,10.07
2022-09-20T20:53:03.132Z,9.98
2022-09-20T20:55:31.246Z,10.15
2022-09-20T20:58:00.339Z,10.05
2022-09-20T21:00:29.944Z,10.20
2022-09-20T21:02:59.874Z,9.80
2022-09-20T21:05:28.769Z,9.82
2022-09-20T21:07:57.865Z,10.19
2022-09-20T21:10:25.831Z,10.19
2022-09-20T21:12:55.394Z,10.18
2022-09-20T21:15:24.520Z,10.27
2022-09-20T21:17:52.901Z,10.18
2022-09-20T21:20:21.340Z,10.19
2022-09-20T21:22:49.163Z,10.16
2022-09-20T21:25:17.251Z,10.21
2022-09-20T21:27:45.159Z,9.99
2022-09-20T21:30:13.777Z,9.96
2022-09-20T21:32:42.904Z,9.82
2022-09-20T21:35:11.401Z,10.62
2022-09-20T21:37:39.400Z,10.24
2022-09-20T21:40:09.004Z,10.27
2022-09-20T21:42:36.769Z,10.61
2022-09-20T21:45:08.494Z,10.10
2022-09-20T21:47:36.294Z,10.05
2022-09-20T21:50:06.176Z,9.97
2022-09-20T21:52:34.469Z,9.80
2022-09-20T21:55:02.234Z,9.75
2022-09-20T21:57:29.992Z,9.69
2022-09-20T21:59:57.757Z,9.73
2022-09-20T22:02:25.590Z,9.64
2022-09-20T22:04:53.489Z,9.62
2022-09-20T22:07:23.201Z,9.83
2022-09-20T22:09:51.033Z,9.70
2022-09-20T22:12:18.813Z,9.64
2022-09-20T22:14:46.600Z,9.62
2022-09-20T22:17:14.421Z,9.88
2022-09-20T22:19:42.316Z,10.04
2022-09-20T22:22:10.063Z,10.13
2022-09-20T22:24:39.183Z,10.01
2022-09-20T22:27:07.126Z,9.83
2022-09-20T22:29:35.159Z,10.13
2022-09-20T22:32:03.132Z,10.23
2022-09-20T22:34:30.882Z,10.24
2022-09-20T22:36:58.631Z,10.05
2022-09-20T22:39:26.447Z,10.12
2022-09-20T22:41:55.615Z,9.90
2022-09-20T22:44:23.452Z,9.99
2022-09-20T22:46:51.493Z,9.93
2022-09-20T22:49:19.279Z,9.90
2022-09-20T22:51:47.050Z,9.68
2022-09-20T22:54:14.875Z,9.57
2022-09-20T22:56:42.728Z,9.63
2022-09-20T22:59:13.470Z,9.59
2022-09-20T23:01:42.891Z,9.40
2022-09-20T23:04:12.904Z,9.31
2022-09-20T23:06:42.596Z,9.44
2022-09-20T23:09:12.411Z,9.40
2022-09-20T23:11:42.677Z,9.42
2022-09-20T23:14:13.883Z,9.44
2022-09-20T23:16:42.075Z,9.36
2022-09-20T23:19:10.705Z,9.27
2022-09-20T23:21:40.013Z,9.24
2022-09-20T23:24:10.081Z,9.25
2022-09-20T23:26:39.225Z,9.23
2022-09-20T23:29:08.992Z,9.20
2022-09-20T23:31:39.704Z,9.23
2022-09-20T23:34:08.911Z,9.19
2022-09-20T23:36:38.555Z,9.07
2022-09-20T23:39:07.405Z,9.01
2022-09-20T23:41:36.520Z,9.00
2022-09-20T23:44:06.394Z,9.03
2022-09-20T23:46:35.153Z,8.79
2022-09-20T23:49:04.462Z,8.64
2022-09-20T23:51:35.261Z,8.36
2022-09-20T23:54:03.097Z,8.32
2022-09-20T23:56:31.240Z,8.36
2022-09-20T23:58:59.144Z,8.28
